FYT3939 LHBP-LIRF
Flight info
| Callsign | FYT3939 |
|---|---|
| Flight time | 1h 22m |
| Altitude | 34000 |
| Route | DUZLA DCT VEBAL DCT RASTU DCT EDUGI DCT UNUMU N737 IPGOR/N0391F190 N737 ETPOK T369 RITEB |
| Aircraft | A321/M-SDE1FGHIJ1RWXY/S |
Departure
| Time | 2026-05-06 09:37 |
|---|---|
| Airport | Budapest Liszt Ferenc International Airport (LHBP) |
Arrival
| Time | 2026-05-06 11:00 |
|---|---|
| Airport | Rome–Fiumicino Leonardo da Vinci International Airport (LIRF) |
| Time | Latitude | Longitude | Altitude | Speed | Heading |
|---|---|---|---|---|---|
| 2026-05-06 09:00 | 47.43291 | 19.25701 | 467 ft | 0 kts | 43° |
| 2026-05-06 09:27 | 47.43281 | 19.25687 | 467 ft | 2 kts | 43° |
| 2026-05-06 09:27 | 47.43270 | 19.25671 | 467 ft | 2 kts | 43° |
| 2026-05-06 09:27 | 47.43259 | 19.25656 | 466 ft | 2 kts | 43° |
| 2026-05-06 09:28 | 47.43248 | 19.25641 | 466 ft | 2 kts | 43° |
| 2026-05-06 09:28 | 47.43238 | 19.25628 | 465 ft | 0 kts | 43° |
| 2026-05-06 09:28 | 47.43232 | 19.25621 | 465 ft | 1 kts | 5° |
| 2026-05-06 09:28 | 47.43224 | 19.25624 | 465 ft | 0 kts | 315° |
| 2026-05-06 09:29 | 47.43219 | 19.25632 | 465 ft | 1 kts | 311° |
| 2026-05-06 09:29 | 47.43219 | 19.25633 | 465 ft | 0 kts | 311° |
| 2026-05-06 09:30 | 47.43219 | 19.25632 | 465 ft | 0 kts | 311° |
| 2026-05-06 09:31 | 47.43226 | 19.25621 | 465 ft | 0 kts | 311° |
| 2026-05-06 09:32 | 47.43233 | 19.25609 | 465 ft | 2 kts | 311° |
| 2026-05-06 09:32 | 47.43256 | 19.25570 | 465 ft | 7 kts | 312° |
| 2026-05-06 09:32 | 47.43301 | 19.25497 | 465 ft | 12 kts | 311° |
| 2026-05-06 09:32 | 47.43384 | 19.25451 | 465 ft | 15 kts | 23° |
| 2026-05-06 09:33 | 47.43467 | 19.25551 | 469 ft | 15 kts | 42° |
| 2026-05-06 09:33 | 47.43549 | 19.25660 | 473 ft | 16 kts | 42° |
| 2026-05-06 09:33 | 47.43637 | 19.25781 | 475 ft | 17 kts | 43° |
| 2026-05-06 09:33 | 47.43731 | 19.25907 | 478 ft | 18 kts | 42° |
| 2026-05-06 09:34 | 47.43823 | 19.26029 | 480 ft | 17 kts | 41° |
| 2026-05-06 09:34 | 47.43914 | 19.26136 | 481 ft | 16 kts | 13° |
| 2026-05-06 09:34 | 47.44006 | 19.26060 | 482 ft | 15 kts | 313° |
| 2026-05-06 09:34 | 47.44075 | 19.25945 | 484 ft | 14 kts | 312° |
| 2026-05-06 09:35 | 47.44142 | 19.25839 | 485 ft | 13 kts | 313° |
| 2026-05-06 09:35 | 47.44205 | 19.25740 | 486 ft | 12 kts | 312° |
| 2026-05-06 09:35 | 47.44265 | 19.25642 | 487 ft | 12 kts | 311° |
| 2026-05-06 09:35 | 47.44330 | 19.25568 | 489 ft | 13 kts | 343° |
| 2026-05-06 09:36 | 47.44427 | 19.25573 | 491 ft | 13 kts | 21° |
| 2026-05-06 09:36 | 47.44453 | 19.25597 | 491 ft | 1 kts | 37° |
| 2026-05-06 09:36 | 47.44480 | 19.25643 | 492 ft | 10 kts | 64° |
| 2026-05-06 09:36 | 47.44501 | 19.25792 | 492 ft | 19 kts | 104° |
| 2026-05-06 09:37 | 47.44278 | 19.26178 | 485 ft | 85 kts | 133° |
| 2026-05-06 09:37 | 47.43726 | 19.27075 | 468 ft | 148 kts | 134° |
| 2026-05-06 09:37 | 47.42931 | 19.28388 | 506 ft | 191 kts | 133° |
| 2026-05-06 09:37 | 47.42069 | 19.29819 | 1262 ft | 184 kts | 135° |
| 2026-05-06 09:38 | 47.41331 | 19.31356 | 2024 ft | 185 kts | 123° |
| 2026-05-06 09:38 | 47.40788 | 19.33040 | 2712 ft | 182 kts | 120° |
| 2026-05-06 09:38 | 47.40211 | 19.34681 | 3291 ft | 183 kts | 123° |
| 2026-05-06 09:38 | 47.39611 | 19.36323 | 3821 ft | 187 kts | 123° |
| 2026-05-06 09:39 | 47.38957 | 19.38057 | 4175 ft | 202 kts | 124° |
| 2026-05-06 09:39 | 47.38088 | 19.39756 | 4496 ft | 211 kts | 147° |
| 2026-05-06 09:39 | 47.36711 | 19.40526 | 4775 ft | 222 kts | 179° |
| 2026-05-06 09:39 | 47.35175 | 19.40055 | 5090 ft | 236 kts | 210° |
| 2026-05-06 09:40 | 47.34013 | 19.38348 | 5673 ft | 244 kts | 238° |
| 2026-05-06 09:40 | 47.33184 | 19.36162 | 6385 ft | 246 kts | 238° |
| 2026-05-06 09:40 | 47.31339 | 19.31672 | 7608 ft | 260 kts | 238° |
| 2026-05-06 09:41 | 47.30401 | 19.29396 | 8334 ft | 262 kts | 238° |
| 2026-05-06 09:41 | 47.29457 | 19.27100 | 9035 ft | 265 kts | 238° |
| 2026-05-06 09:41 | 47.28515 | 19.24803 | 9728 ft | 267 kts | 239° |
| 2026-05-06 09:41 | 47.27550 | 19.22442 | 10366 ft | 272 kts | 239° |
| 2026-05-06 09:42 | 47.26563 | 19.20027 | 10704 ft | 287 kts | 239° |
| 2026-05-06 09:42 | 47.25504 | 19.17434 | 10997 ft | 303 kts | 239° |
| 2026-05-06 09:42 | 47.24390 | 19.14712 | 11280 ft | 318 kts | 239° |
| 2026-05-06 09:42 | 47.23227 | 19.11874 | 11771 ft | 325 kts | 239° |
| 2026-05-06 09:43 | 47.22059 | 19.09030 | 12389 ft | 328 kts | 239° |
| 2026-05-06 09:43 | 47.20866 | 19.06125 | 12989 ft | 332 kts | 239° |
| 2026-05-06 09:43 | 47.19589 | 19.03269 | 13557 ft | 336 kts | 234° |
| 2026-05-06 09:43 | 47.18073 | 19.00663 | 14140 ft | 339 kts | 227° |
| 2026-05-06 09:44 | 47.16320 | 18.98299 | 14704 ft | 343 kts | 222° |
| 2026-05-06 09:44 | 47.14500 | 18.96045 | 15269 ft | 346 kts | 221° |
| 2026-05-06 09:44 | 47.12656 | 18.93787 | 15809 ft | 349 kts | 220° |
| 2026-05-06 09:44 | 47.10768 | 18.91481 | 16326 ft | 353 kts | 220° |
| 2026-05-06 09:45 | 47.08886 | 18.89179 | 16836 ft | 356 kts | 220° |
| 2026-05-06 09:45 | 47.06981 | 18.86849 | 17336 ft | 359 kts | 220° |
| 2026-05-06 09:45 | 47.05053 | 18.84491 | 17811 ft | 363 kts | 220° |
| 2026-05-06 09:45 | 47.03126 | 18.82137 | 18289 ft | 366 kts | 220° |
| 2026-05-06 09:46 | 47.01149 | 18.79728 | 18778 ft | 369 kts | 220° |
| 2026-05-06 09:46 | 46.99157 | 18.77301 | 19287 ft | 371 kts | 220° |
| 2026-05-06 09:46 | 46.97179 | 18.74884 | 19771 ft | 373 kts | 221° |
| 2026-05-06 09:46 | 46.95248 | 18.72334 | 20239 ft | 375 kts | 224° |
| 2026-05-06 09:47 | 46.93402 | 18.69601 | 20701 ft | 377 kts | 227° |
| 2026-05-06 09:47 | 46.91600 | 18.66863 | 21151 ft | 380 kts | 227° |
| 2026-05-06 09:47 | 46.89763 | 18.64070 | 21605 ft | 382 kts | 227° |
| 2026-05-06 09:47 | 46.87929 | 18.61282 | 22041 ft | 384 kts | 227° |
| 2026-05-06 09:48 | 46.86053 | 18.58436 | 22471 ft | 387 kts | 227° |
| 2026-05-06 09:48 | 46.84210 | 18.55640 | 22897 ft | 388 kts | 227° |
| 2026-05-06 09:48 | 46.82321 | 18.52780 | 23326 ft | 390 kts | 228° |
| 2026-05-06 09:48 | 46.80423 | 18.49906 | 23737 ft | 393 kts | 228° |
| 2026-05-06 09:49 | 46.78529 | 18.47041 | 24151 ft | 394 kts | 228° |
| 2026-05-06 09:49 | 46.76599 | 18.44123 | 24551 ft | 396 kts | 228° |
| 2026-05-06 09:49 | 46.74682 | 18.41231 | 24931 ft | 399 kts | 228° |
| 2026-05-06 09:49 | 46.72768 | 18.38347 | 25325 ft | 400 kts | 228° |
| 2026-05-06 09:50 | 46.70825 | 18.35422 | 25704 ft | 401 kts | 228° |
| 2026-05-06 09:50 | 46.68880 | 18.32499 | 26067 ft | 403 kts | 227° |
| 2026-05-06 09:50 | 46.66931 | 18.29573 | 26399 ft | 405 kts | 227° |
| 2026-05-06 09:50 | 46.64970 | 18.26631 | 26755 ft | 407 kts | 227° |
| 2026-05-06 09:51 | 46.63020 | 18.23710 | 27105 ft | 408 kts | 227° |
| 2026-05-06 09:51 | 46.61022 | 18.20719 | 27429 ft | 410 kts | 227° |
| 2026-05-06 09:51 | 46.59055 | 18.17777 | 27785 ft | 411 kts | 227° |
| 2026-05-06 09:51 | 46.57053 | 18.14789 | 28131 ft | 412 kts | 227° |
| 2026-05-06 09:52 | 46.55054 | 18.11807 | 28439 ft | 414 kts | 227° |
| 2026-05-06 09:52 | 46.53036 | 18.08801 | 28765 ft | 415 kts | 227° |
| 2026-05-06 09:52 | 46.51031 | 18.05815 | 29113 ft | 415 kts | 227° |
| 2026-05-06 09:52 | 46.49023 | 18.02830 | 29550 ft | 412 kts | 227° |
| 2026-05-06 09:53 | 46.47018 | 17.99857 | 29992 ft | 410 kts | 227° |
| 2026-05-06 09:53 | 46.45024 | 17.96900 | 30407 ft | 408 kts | 227° |
| 2026-05-06 09:53 | 46.43061 | 17.93995 | 30785 ft | 407 kts | 227° |
| 2026-05-06 09:53 | 46.41068 | 17.91047 | 31166 ft | 406 kts | 227° |
| 2026-05-06 09:54 | 46.39109 | 17.88152 | 31538 ft | 405 kts | 227° |
| 2026-05-06 09:54 | 46.37151 | 17.85258 | 31905 ft | 403 kts | 228° |
| 2026-05-06 09:54 | 46.35205 | 17.82387 | 32263 ft | 402 kts | 228° |
| 2026-05-06 09:54 | 46.33232 | 17.79478 | 32556 ft | 402 kts | 228° |
| 2026-05-06 09:55 | 46.31292 | 17.76623 | 32783 ft | 404 kts | 228° |
| 2026-05-06 09:55 | 46.29317 | 17.73718 | 33018 ft | 405 kts | 228° |
| 2026-05-06 09:55 | 46.27346 | 17.70822 | 33280 ft | 405 kts | 228° |
| 2026-05-06 09:55 | 46.25370 | 17.67923 | 33543 ft | 405 kts | 228° |
| 2026-05-06 09:56 | 46.23405 | 17.65042 | 33777 ft | 405 kts | 228° |
| 2026-05-06 09:56 | 46.21427 | 17.62145 | 33904 ft | 407 kts | 228° |
| 2026-05-06 09:56 | 46.17461 | 17.56346 | 33906 ft | 408 kts | 228° |
| 2026-05-06 09:57 | 46.13483 | 17.50546 | 33907 ft | 408 kts | 228° |
| 2026-05-06 09:57 | 46.09462 | 17.44692 | 33907 ft | 409 kts | 228° |
| 2026-05-06 09:58 | 46.05483 | 17.38907 | 33911 ft | 408 kts | 228° |
| 2026-05-06 09:58 | 46.01478 | 17.33106 | 33908 ft | 408 kts | 227° |
| 2026-05-06 09:59 | 45.97500 | 17.27286 | 33910 ft | 408 kts | 229° |
| 2026-05-06 09:59 | 45.93607 | 17.21354 | 33909 ft | 409 kts | 229° |
| 2026-05-06 10:00 | 45.89737 | 17.15463 | 33906 ft | 409 kts | 229° |
| 2026-05-06 10:00 | 45.85831 | 17.09539 | 33912 ft | 409 kts | 229° |
| 2026-05-06 10:01 | 45.81911 | 17.03613 | 33911 ft | 409 kts | 229° |
| 2026-05-06 10:01 | 45.78021 | 16.97747 | 33912 ft | 409 kts | 229° |
| 2026-05-06 10:02 | 45.74104 | 16.91853 | 33914 ft | 409 kts | 229° |
| 2026-05-06 10:02 | 45.70207 | 16.86004 | 33913 ft | 408 kts | 229° |
| 2026-05-06 10:03 | 45.66293 | 16.80144 | 33915 ft | 407 kts | 229° |
| 2026-05-06 10:03 | 45.62402 | 16.74326 | 33914 ft | 407 kts | 229° |
| 2026-05-06 10:04 | 45.58507 | 16.68518 | 33913 ft | 407 kts | 229° |
| 2026-05-06 10:04 | 45.54586 | 16.62682 | 33913 ft | 407 kts | 229° |
| 2026-05-06 10:05 | 45.50688 | 16.56891 | 33914 ft | 407 kts | 229° |
| 2026-05-06 10:05 | 45.46773 | 16.51090 | 33913 ft | 406 kts | 229° |
| 2026-05-06 10:06 | 45.42871 | 16.45322 | 33912 ft | 406 kts | 229° |
| 2026-05-06 10:06 | 45.38944 | 16.39526 | 33913 ft | 406 kts | 229° |
| 2026-05-06 10:07 | 45.35040 | 16.33777 | 33916 ft | 406 kts | 227° |
| 2026-05-06 10:07 | 45.31115 | 16.28011 | 33919 ft | 405 kts | 227° |
| 2026-05-06 10:08 | 45.27226 | 16.22308 | 33924 ft | 405 kts | 227° |
| 2026-05-06 10:08 | 45.23306 | 16.16571 | 33927 ft | 404 kts | 227° |
| 2026-05-06 10:09 | 45.19395 | 16.10863 | 33930 ft | 404 kts | 227° |
| 2026-05-06 10:09 | 45.15487 | 16.05170 | 33933 ft | 404 kts | 228° |
| 2026-05-06 10:10 | 45.11574 | 15.99479 | 33936 ft | 403 kts | 228° |
| 2026-05-06 10:10 | 45.07658 | 15.93796 | 33943 ft | 403 kts | 227° |
| 2026-05-06 10:11 | 45.03765 | 15.88154 | 33952 ft | 403 kts | 227° |
| 2026-05-06 10:11 | 44.99833 | 15.82472 | 33960 ft | 403 kts | 227° |
| 2026-05-06 10:12 | 44.95917 | 15.76824 | 33963 ft | 403 kts | 227° |
| 2026-05-06 10:12 | 44.91985 | 15.71225 | 33962 ft | 403 kts | 227° |
| 2026-05-06 10:13 | 44.88025 | 15.65688 | 33965 ft | 403 kts | 227° |
| 2026-05-06 10:13 | 44.84049 | 15.60133 | 33968 ft | 403 kts | 227° |
| 2026-05-06 10:14 | 44.80066 | 15.54576 | 33970 ft | 403 kts | 227° |
| 2026-05-06 10:14 | 44.76070 | 15.49006 | 33969 ft | 403 kts | 227° |
| 2026-05-06 10:15 | 44.72110 | 15.43502 | 33965 ft | 402 kts | 227° |
| 2026-05-06 10:15 | 44.68142 | 15.37992 | 33966 ft | 402 kts | 226° |
| 2026-05-06 10:16 | 44.64154 | 15.32472 | 33964 ft | 402 kts | 226° |
| 2026-05-06 10:16 | 44.60181 | 15.26976 | 33964 ft | 401 kts | 226° |
| 2026-05-06 10:17 | 44.56195 | 15.21478 | 33965 ft | 402 kts | 226° |
| 2026-05-06 10:17 | 44.52210 | 15.15992 | 33963 ft | 403 kts | 226° |
| 2026-05-06 10:18 | 44.48240 | 15.10538 | 33958 ft | 402 kts | 226° |
| 2026-05-06 10:18 | 44.44255 | 15.05074 | 33954 ft | 403 kts | 226° |
| 2026-05-06 10:19 | 44.40252 | 14.99598 | 33951 ft | 402 kts | 226° |
| 2026-05-06 10:19 | 44.36276 | 14.94167 | 33950 ft | 402 kts | 226° |
| 2026-05-06 10:20 | 44.32272 | 14.88711 | 33948 ft | 402 kts | 226° |
| 2026-05-06 10:20 | 44.28273 | 14.83271 | 33946 ft | 402 kts | 226° |
| 2026-05-06 10:21 | 44.24269 | 14.77833 | 33946 ft | 401 kts | 226° |
| 2026-05-06 10:21 | 44.20303 | 14.72460 | 33954 ft | 400 kts | 225° |
| 2026-05-06 10:22 | 44.16319 | 14.67075 | 33953 ft | 399 kts | 226° |
| 2026-05-06 10:22 | 44.12347 | 14.61716 | 33944 ft | 398 kts | 226° |
| 2026-05-06 10:23 | 44.08385 | 14.56374 | 33941 ft | 398 kts | 225° |
| 2026-05-06 10:23 | 44.04410 | 14.51034 | 33938 ft | 398 kts | 225° |
| 2026-05-06 10:24 | 44.00406 | 14.45662 | 33936 ft | 397 kts | 225° |
| 2026-05-06 10:24 | 43.96446 | 14.40360 | 33928 ft | 397 kts | 225° |
| 2026-05-06 10:25 | 43.92459 | 14.35032 | 33933 ft | 398 kts | 225° |
| 2026-05-06 10:25 | 43.88464 | 14.29703 | 33941 ft | 397 kts | 225° |
| 2026-05-06 10:26 | 43.84524 | 14.24359 | 33932 ft | 396 kts | 227° |
| 2026-05-06 10:26 | 43.81043 | 14.18436 | 33925 ft | 395 kts | 234° |
| 2026-05-06 10:27 | 43.78220 | 14.11956 | 33922 ft | 395 kts | 242° |
| 2026-05-06 10:27 | 43.76078 | 14.04979 | 33921 ft | 397 kts | 249° |
| 2026-05-06 10:28 | 43.74284 | 13.97803 | 33922 ft | 397 kts | 249° |
| 2026-05-06 10:28 | 43.72493 | 13.90600 | 33926 ft | 397 kts | 249° |
| 2026-05-06 10:29 | 43.70697 | 13.83382 | 33930 ft | 396 kts | 249° |
| 2026-05-06 10:29 | 43.68901 | 13.76192 | 33934 ft | 396 kts | 249° |
| 2026-05-06 10:30 | 43.67115 | 13.69052 | 33932 ft | 396 kts | 249° |
| 2026-05-06 10:30 | 43.65310 | 13.61870 | 33932 ft | 396 kts | 249° |
| 2026-05-06 10:31 | 43.63515 | 13.54739 | 33932 ft | 395 kts | 249° |
| 2026-05-06 10:31 | 43.61708 | 13.47595 | 33936 ft | 395 kts | 249° |
| 2026-05-06 10:32 | 43.59900 | 13.40455 | 33935 ft | 394 kts | 249° |
| 2026-05-06 10:32 | 43.58083 | 13.33313 | 33938 ft | 395 kts | 248° |
| 2026-05-06 10:33 | 43.56266 | 13.26190 | 33932 ft | 394 kts | 248° |
| 2026-05-06 10:33 | 43.55368 | 13.22674 | 33777 ft | 395 kts | 249° |
| 2026-05-06 10:33 | 43.54456 | 13.19116 | 33496 ft | 392 kts | 249° |
| 2026-05-06 10:34 | 43.53544 | 13.15556 | 33215 ft | 390 kts | 249° |
| 2026-05-06 10:34 | 43.52658 | 13.12102 | 32938 ft | 388 kts | 249° |
| 2026-05-06 10:34 | 43.51759 | 13.08603 | 32663 ft | 386 kts | 249° |
| 2026-05-06 10:34 | 43.50868 | 13.05141 | 32386 ft | 386 kts | 249° |
| 2026-05-06 10:35 | 43.49970 | 13.01662 | 32112 ft | 387 kts | 249° |
| 2026-05-06 10:35 | 43.49060 | 12.98137 | 31830 ft | 388 kts | 249° |
| 2026-05-06 10:35 | 43.48149 | 12.94612 | 31556 ft | 388 kts | 249° |
| 2026-05-06 10:35 | 43.47247 | 12.91122 | 31283 ft | 388 kts | 249° |
| 2026-05-06 10:36 | 43.46330 | 12.87594 | 31006 ft | 389 kts | 248° |
| 2026-05-06 10:36 | 43.45421 | 12.84096 | 30729 ft | 389 kts | 249° |
| 2026-05-06 10:36 | 43.44407 | 12.80692 | 30453 ft | 390 kts | 244° |
| 2026-05-06 10:36 | 43.43111 | 12.77402 | 30179 ft | 390 kts | 238° |
| 2026-05-06 10:37 | 43.41591 | 12.74348 | 29918 ft | 391 kts | 233° |
| 2026-05-06 10:37 | 43.39822 | 12.71482 | 29653 ft | 392 kts | 228° |
| 2026-05-06 10:37 | 43.37853 | 12.68899 | 29390 ft | 395 kts | 223° |
| 2026-05-06 10:37 | 43.35685 | 12.66598 | 29130 ft | 397 kts | 217° |
| 2026-05-06 10:38 | 43.33369 | 12.64548 | 28870 ft | 398 kts | 215° |
| 2026-05-06 10:38 | 43.31004 | 12.62527 | 28603 ft | 398 kts | 214° |
| 2026-05-06 10:38 | 43.28638 | 12.60522 | 28343 ft | 398 kts | 214° |
| 2026-05-06 10:38 | 43.26268 | 12.58518 | 28065 ft | 396 kts | 214° |
| 2026-05-06 10:39 | 43.23892 | 12.56515 | 27745 ft | 394 kts | 214° |
| 2026-05-06 10:39 | 43.21569 | 12.54557 | 27408 ft | 393 kts | 214° |
| 2026-05-06 10:39 | 43.19273 | 12.52625 | 26981 ft | 391 kts | 214° |
| 2026-05-06 10:39 | 43.16945 | 12.50670 | 26507 ft | 388 kts | 214° |
| 2026-05-06 10:40 | 43.14673 | 12.48762 | 26020 ft | 385 kts | 213° |
| 2026-05-06 10:40 | 43.12408 | 12.46863 | 25526 ft | 381 kts | 214° |
| 2026-05-06 10:40 | 43.10167 | 12.44987 | 25028 ft | 378 kts | 213° |
| 2026-05-06 10:40 | 43.07940 | 12.43121 | 24531 ft | 375 kts | 213° |
| 2026-05-06 10:41 | 43.05716 | 12.41262 | 24032 ft | 372 kts | 213° |
| 2026-05-06 10:41 | 43.03487 | 12.39537 | 23486 ft | 371 kts | 207° |
| 2026-05-06 10:41 | 43.01071 | 12.38303 | 22862 ft | 372 kts | 201° |
| 2026-05-06 10:41 | 42.98578 | 12.37189 | 22153 ft | 373 kts | 201° |
| 2026-05-06 10:42 | 42.96134 | 12.36097 | 21443 ft | 374 kts | 201° |
| 2026-05-06 10:42 | 42.93644 | 12.34962 | 20719 ft | 375 kts | 201° |
| 2026-05-06 10:42 | 42.91190 | 12.33826 | 20006 ft | 376 kts | 201° |
| 2026-05-06 10:42 | 42.88693 | 12.32655 | 19286 ft | 377 kts | 201° |
| 2026-05-06 10:43 | 42.86930 | 12.31824 | 18774 ft | 378 kts | 201° |
| 2026-05-06 10:43 | 42.84439 | 12.30646 | 18062 ft | 379 kts | 201° |
| 2026-05-06 10:43 | 42.81963 | 12.29473 | 17336 ft | 380 kts | 201° |
| 2026-05-06 10:44 | 42.77003 | 12.27124 | 16194 ft | 373 kts | 201° |
| 2026-05-06 10:44 | 42.74601 | 12.25986 | 15744 ft | 367 kts | 201° |
| 2026-05-06 10:44 | 42.72223 | 12.24861 | 15297 ft | 361 kts | 201° |
| 2026-05-06 10:44 | 42.69856 | 12.23741 | 14808 ft | 357 kts | 201° |
| 2026-05-06 10:45 | 42.67521 | 12.22634 | 14278 ft | 354 kts | 201° |
| 2026-05-06 10:45 | 42.65169 | 12.21521 | 13738 ft | 351 kts | 201° |
| 2026-05-06 10:45 | 42.62847 | 12.20422 | 13208 ft | 348 kts | 201° |
| 2026-05-06 10:45 | 42.60552 | 12.19338 | 12671 ft | 345 kts | 201° |
| 2026-05-06 10:46 | 42.58290 | 12.18270 | 12135 ft | 343 kts | 201° |
| 2026-05-06 10:46 | 42.56055 | 12.17216 | 11555 ft | 335 kts | 201° |
| 2026-05-06 10:46 | 42.53874 | 12.16189 | 10616 ft | 329 kts | 201° |
| 2026-05-06 10:46 | 42.51786 | 12.15207 | 10188 ft | 307 kts | 201° |
| 2026-05-06 10:47 | 42.49867 | 12.14310 | 10120 ft | 276 kts | 202° |
| 2026-05-06 10:47 | 42.48115 | 12.13487 | 10076 ft | 265 kts | 202° |
| 2026-05-06 10:47 | 42.46372 | 12.12663 | 10016 ft | 265 kts | 202° |
| 2026-05-06 10:47 | 42.44625 | 12.11838 | 9749 ft | 266 kts | 202° |
| 2026-05-06 10:48 | 42.42888 | 12.11021 | 9540 ft | 255 kts | 202° |
| 2026-05-06 10:48 | 42.41267 | 12.10264 | 9489 ft | 236 kts | 202° |
| 2026-05-06 10:48 | 42.39772 | 12.09584 | 9440 ft | 219 kts | 198° |
| 2026-05-06 10:48 | 42.38281 | 12.09448 | 9408 ft | 207 kts | 179° |
| 2026-05-06 10:49 | 42.36861 | 12.09914 | 9072 ft | 219 kts | 168° |
| 2026-05-06 10:49 | 42.35354 | 12.10553 | 8740 ft | 229 kts | 167° |
| 2026-05-06 10:49 | 42.33838 | 12.11220 | 8418 ft | 228 kts | 167° |
| 2026-05-06 10:49 | 42.32341 | 12.11874 | 8109 ft | 228 kts | 167° |
| 2026-05-06 10:50 | 42.30844 | 12.12520 | 7815 ft | 226 kts | 167° |
| 2026-05-06 10:50 | 42.29326 | 12.13168 | 7509 ft | 225 kts | 167° |
| 2026-05-06 10:50 | 42.27835 | 12.13802 | 7208 ft | 224 kts | 167° |
| 2026-05-06 10:50 | 42.26376 | 12.14421 | 6899 ft | 218 kts | 166° |
| 2026-05-06 10:51 | 42.24949 | 12.15028 | 6595 ft | 211 kts | 166° |
| 2026-05-06 10:51 | 42.23567 | 12.15615 | 6398 ft | 210 kts | 167° |
| 2026-05-06 10:51 | 42.22165 | 12.16206 | 6213 ft | 209 kts | 166° |
| 2026-05-06 10:51 | 42.20783 | 12.16789 | 6036 ft | 208 kts | 166° |
| 2026-05-06 10:52 | 42.19412 | 12.17366 | 5804 ft | 204 kts | 166° |
| 2026-05-06 10:52 | 42.18051 | 12.17940 | 5383 ft | 204 kts | 165° |
| 2026-05-06 10:52 | 42.16697 | 12.18510 | 5027 ft | 203 kts | 165° |
| 2026-05-06 10:52 | 42.15346 | 12.18995 | 4714 ft | 201 kts | 173° |
| 2026-05-06 10:53 | 42.13946 | 12.18931 | 4406 ft | 199 kts | 189° |
| 2026-05-06 10:53 | 42.12603 | 12.18556 | 4132 ft | 198 kts | 191° |
| 2026-05-06 10:53 | 42.11277 | 12.18147 | 3842 ft | 192 kts | 191° |
| 2026-05-06 10:53 | 42.09998 | 12.17750 | 3597 ft | 182 kts | 191° |
| 2026-05-06 10:54 | 42.08771 | 12.17384 | 3349 ft | 175 kts | 188° |
| 2026-05-06 10:54 | 42.07543 | 12.17230 | 3114 ft | 173 kts | 180° |
| 2026-05-06 10:54 | 42.06347 | 12.17307 | 2932 ft | 171 kts | 172° |
| 2026-05-06 10:54 | 42.05173 | 12.17603 | 2956 ft | 172 kts | 166° |
| 2026-05-06 10:55 | 42.04008 | 12.18033 | 2965 ft | 173 kts | 163° |
| 2026-05-06 10:55 | 42.02853 | 12.18505 | 2791 ft | 174 kts | 162° |
| 2026-05-06 10:55 | 42.01699 | 12.18987 | 2530 ft | 172 kts | 162° |
| 2026-05-06 10:55 | 42.00554 | 12.19467 | 2472 ft | 172 kts | 161° |
| 2026-05-06 10:56 | 41.99416 | 12.19945 | 2467 ft | 172 kts | 161° |
| 2026-05-06 10:56 | 41.98264 | 12.20428 | 2463 ft | 172 kts | 162° |
| 2026-05-06 10:56 | 41.97106 | 12.20912 | 2455 ft | 172 kts | 161° |
| 2026-05-06 10:56 | 41.95952 | 12.21396 | 2299 ft | 171 kts | 161° |
| 2026-05-06 10:57 | 41.94812 | 12.21872 | 2071 ft | 165 kts | 162° |
| 2026-05-06 10:57 | 41.93768 | 12.22308 | 1844 ft | 150 kts | 161° |
| 2026-05-06 10:57 | 41.92774 | 12.22725 | 1662 ft | 150 kts | 162° |
| 2026-05-06 10:57 | 41.91771 | 12.23145 | 1481 ft | 150 kts | 162° |
| 2026-05-06 10:58 | 41.90775 | 12.23562 | 1295 ft | 150 kts | 162° |
| 2026-05-06 10:58 | 41.89785 | 12.23976 | 1099 ft | 147 kts | 161° |
| 2026-05-06 10:58 | 41.88850 | 12.24368 | 881 ft | 134 kts | 162° |
| 2026-05-06 10:58 | 41.87960 | 12.24737 | 711 ft | 133 kts | 161° |
| 2026-05-06 10:59 | 41.87075 | 12.25109 | 548 ft | 132 kts | 161° |
| 2026-05-06 10:59 | 41.86200 | 12.25479 | 378 ft | 132 kts | 163° |
| 2026-05-06 10:59 | 41.85309 | 12.25849 | 206 ft | 131 kts | 163° |
| 2026-05-06 10:59 | 41.84420 | 12.26213 | 60 ft | 131 kts | 161° |
| 2026-05-06 11:00 | 41.83557 | 12.26595 | 13 ft | 122 kts | 161° |
| 2026-05-06 11:00 | 41.82910 | 12.26860 | 11 ft | 72 kts | 162° |
| 2026-05-06 11:00 | 41.82572 | 12.26995 | 11 ft | 39 kts | 163° |
| 2026-05-06 11:00 | 41.82318 | 12.27098 | 11 ft | 36 kts | 163° |
| 2026-05-06 11:01 | 41.82075 | 12.27134 | 11 ft | 33 kts | 185° |
| 2026-05-06 11:01 | 41.81854 | 12.27076 | 12 ft | 31 kts | 191° |
| 2026-05-06 11:01 | 41.81643 | 12.27063 | 12 ft | 29 kts | 163° |
| 2026-05-06 11:01 | 41.81453 | 12.27143 | 13 ft | 27 kts | 163° |
| 2026-05-06 11:02 | 41.81273 | 12.27218 | 13 ft | 26 kts | 162° |
| 2026-05-06 11:02 | 41.81101 | 12.27292 | 13 ft | 25 kts | 162° |
| 2026-05-06 11:02 | 41.80935 | 12.27351 | 13 ft | 24 kts | 180° |
| 2026-05-06 11:02 | 41.80770 | 12.27325 | 14 ft | 22 kts | 188° |
| 2026-05-06 11:03 | 41.80652 | 12.27211 | 14 ft | 21 kts | 246° |
| 2026-05-06 11:03 | 41.80600 | 12.27026 | 14 ft | 21 kts | 250° |
| 2026-05-06 11:03 | 41.80552 | 12.26842 | 15 ft | 20 kts | 245° |
| 2026-05-06 11:03 | 41.80499 | 12.26669 | 15 ft | 19 kts | 248° |
| 2026-05-06 11:04 | 41.80451 | 12.26500 | 16 ft | 19 kts | 248° |
| 2026-05-06 11:04 | 41.80371 | 12.26380 | 16 ft | 10 kts | 185° |
| 2026-05-06 11:04 | 41.80301 | 12.26392 | 16 ft | 10 kts | 165° |
| 2026-05-06 11:04 | 41.80226 | 12.26408 | 16 ft | 11 kts | 186° |
| 2026-05-06 11:05 | 41.80150 | 12.26370 | 16 ft | 11 kts | 206° |
| 2026-05-06 11:05 | 41.80123 | 12.26275 | 16 ft | 9 kts | 272° |
| 2026-05-06 11:05 | 41.80111 | 12.26237 | 16 ft | 4 kts | 218° |
| 2026-05-06 11:05 | 41.80083 | 12.26222 | 17 ft | 0 kts | 202° |
| 2026-05-06 11:06 | 41.80077 | 12.26218 | 17 ft | 1 kts | 204° |
| 2026-05-06 11:06 | 41.80069 | 12.26214 | 17 ft | 0 kts | 204° |